sensor_id;sensor_type;location;lat;lon;timestamp;temperature;humidity
24217;DHT22;12356;49.386;8.688;2023-07-13T00:00:13;22.80;1.00
24217;DHT22;12356;49.386;8.688;2023-07-13T00:02:46;22.80;1.00
24217;DHT22;12356;49.386;8.688;2023-07-13T00:05:17;22.70;1.00
24217;DHT22;12356;49.386;8.688;2023-07-13T00:07:48;22.70;1.00
24217;DHT22;12356;49.386;8.688;2023-07-13T00:10:18;22.60;1.00
24217;DHT22;12356;49.386;8.688;2023-07-13T00:12:50;22.60;1.30
24217;DHT22;12356;49.386;8.688;2023-07-13T00:15:25;22.50;1.20
24217;DHT22;12356;49.386;8.688;2023-07-13T00:17:56;22.50;1.00
24217;DHT22;12356;49.386;8.688;2023-07-13T00:20:27;22.50;1.00
24217;DHT22;12356;49.386;8.688;2023-07-13T00:22:57;22.50;1.00
24217;DHT22;12356;49.386;8.688;2023-07-13T00:25:28;22.50;1.30
24217;DHT22;12356;49.386;8.688;2023-07-13T00:27:58;22.50;1.20
24217;DHT22;12356;49.386;8.688;2023-07-13T00:30:29;22.50;1.20
24217;DHT22;12356;49.386;8.688;2023-07-13T00:33:00;22.50;1.20
24217;DHT22;12356;49.386;8.688;2023-07-13T00:35:31;22.40;1.00
24217;DHT22;12356;49.386;8.688;2023-07-13T00:38:02;22.40;1.10
24217;DHT22;12356;49.386;8.688;2023-07-13T00:40:33;22.40;1.00
24217;DHT22;12356;49.386;8.688;2023-07-13T00:43:19;22.40;1.00
24217;DHT22;12356;49.386;8.688;2023-07-13T00:48:23;22.40;1.00
24217;DHT22;12356;49.386;8.688;2023-07-13T00:50:58;22.40;1.00
24217;DHT22;12356;49.386;8.688;2023-07-13T00:53:32;22.30;1.00
24217;DHT22;12356;49.386;8.688;2023-07-13T00:56:04;22.30;1.00
24217;DHT22;12356;49.386;8.688;2023-07-13T00:58:35;22.20;1.00
24217;DHT22;12356;49.386;8.688;2023-07-13T01:01:06;22.20;1.00
24217;DHT22;12356;49.386;8.688;2023-07-13T01:03:36;22.20;1.00
24217;DHT22;12356;49.386;8.688;2023-07-13T01:06:08;22.10;1.00
24217;DHT22;12356;49.386;8.688;2023-07-13T01:08:39;22.10;1.00
24217;DHT22;12356;49.386;8.688;2023-07-13T01:11:10;22.10;1.00
24217;DHT22;12356;49.386;8.688;2023-07-13T01:13:41;22.00;1.00
24217;DHT22;12356;49.386;8.688;2023-07-13T01:16:32;21.90;1.00
24217;DHT22;12356;49.386;8.688;2023-07-13T01:19:07;21.90;1.60
24217;DHT22;12356;49.386;8.688;2023-07-13T01:21:40;21.80;2.10
24217;DHT22;12356;49.386;8.688;2023-07-13T01:24:13;21.80;2.10
24217;DHT22;12356;49.386;8.688;2023-07-13T01:26:43;21.80;2.50
24217;DHT22;12356;49.386;8.688;2023-07-13T01:29:14;21.70;3.00
24217;DHT22;12356;49.386;8.688;2023-07-13T01:31:44;21.70;3.00
24217;DHT22;12356;49.386;8.688;2023-07-13T01:34:15;21.60;4.20
24217;DHT22;12356;49.386;8.688;2023-07-13T01:36:46;21.50;4.00
24217;DHT22;12356;49.386;8.688;2023-07-13T01:39:16;21.50;4.40
24217;DHT22;12356;49.386;8.688;2023-07-13T01:41:47;21.40;4.60
24217;DHT22;12356;49.386;8.688;2023-07-13T01:44:17;21.40;5.20
24217;DHT22;12356;49.386;8.688;2023-07-13T01:46:48;21.30;5.60
24217;DHT22;12356;49.386;8.688;2023-07-13T01:49:19;21.40;5.80
24217;DHT22;12356;49.386;8.688;2023-07-13T01:51:49;21.40;5.50
24217;DHT22;12356;49.386;8.688;2023-07-13T01:54:20;21.30;5.50
24217;DHT22;12356;49.386;8.688;2023-07-13T01:56:51;21.30;6.40
24217;DHT22;12356;49.386;8.688;2023-07-13T01:59:21;21.20;6.40
24217;DHT22;12356;49.386;8.688;2023-07-13T02:01:52;21.20;6.20
24217;DHT22;12356;49.386;8.688;2023-07-13T02:04:22;21.20;6.40
24217;DHT22;12356;49.386;8.688;2023-07-13T02:06:53;21.20;5.90
24217;DHT22;12356;49.386;8.688;2023-07-13T02:09:25;21.10;5.70
24217;DHT22;12356;49.386;8.688;2023-07-13T02:11:56;21.00;5.80
24217;DHT22;12356;49.386;8.688;2023-07-13T02:14:26;21.00;5.30
24217;DHT22;12356;49.386;8.688;2023-07-13T02:16:57;20.90;5.60
24217;DHT22;12356;49.386;8.688;2023-07-13T02:19:27;20.90;5.90
24217;DHT22;12356;49.386;8.688;2023-07-13T02:21:58;20.90;6.80
24217;DHT22;12356;49.386;8.688;2023-07-13T02:24:28;20.80;7.30
24217;DHT22;12356;49.386;8.688;2023-07-13T02:26:59;20.80;6.30
24217;DHT22;12356;49.386;8.688;2023-07-13T02:29:30;20.80;6.40
24217;DHT22;12356;49.386;8.688;2023-07-13T02:32:00;20.80;6.10
24217;DHT22;12356;49.386;8.688;2023-07-13T02:34:31;20.80;5.70
24217;DHT22;12356;49.386;8.688;2023-07-13T02:37:01;20.70;6.80
24217;DHT22;12356;49.386;8.688;2023-07-13T02:39:32;20.60;6.70
24217;DHT22;12356;49.386;8.688;2023-07-13T02:42:03;20.50;6.90
24217;DHT22;12356;49.386;8.688;2023-07-13T02:44:34;20.50;7.70
24217;DHT22;12356;49.386;8.688;2023-07-13T02:47:05;20.50;7.50
24217;DHT22;12356;49.386;8.688;2023-07-13T02:49:35;20.40;7.50
24217;DHT22;12356;49.386;8.688;2023-07-13T02:52:06;20.40;7.40
24217;DHT22;12356;49.386;8.688;2023-07-13T02:54:37;20.40;7.30
24217;DHT22;12356;49.386;8.688;2023-07-13T02:57:07;20.30;7.40
24217;DHT22;12356;49.386;8.688;2023-07-13T02:59:38;20.30;7.50
24217;DHT22;12356;49.386;8.688;2023-07-13T03:02:08;20.40;7.40
24217;DHT22;12356;49.386;8.688;2023-07-13T03:04:40;20.40;6.30
24217;DHT22;12356;49.386;8.688;2023-07-13T03:07:11;20.40;7.00
24217;DHT22;12356;49.386;8.688;2023-07-13T03:09:41;20.30;7.40
24217;DHT22;12356;49.386;8.688;2023-07-13T03:12:12;20.30;7.50
24217;DHT22;12356;49.386;8.688;2023-07-13T03:14:42;20.30;7.60
24217;DHT22;12356;49.386;8.688;2023-07-13T03:17:13;20.30;7.40
24217;DHT22;12356;49.386;8.688;2023-07-13T03:19:44;20.40;7.40
24217;DHT22;12356;49.386;8.688;2023-07-13T03:22:15;20.30;7.50
24217;DHT22;12356;49.386;8.688;2023-07-13T03:24:46;20.30;7.40
24217;DHT22;12356;49.386;8.688;2023-07-13T03:27:17;20.30;7.60
24217;DHT22;12356;49.386;8.688;2023-07-13T03:29:48;20.20;8.30
24217;DHT22;12356;49.386;8.688;2023-07-13T03:32:18;20.20;8.70
24217;DHT22;12356;49.386;8.688;2023-07-13T03:34:49;20.10;8.60
24217;DHT22;12356;49.386;8.688;2023-07-13T03:37:19;20.10;8.30
24217;DHT22;12356;49.386;8.688;2023-07-13T03:39:50;20.10;9.00
24217;DHT22;12356;49.386;8.688;2023-07-13T03:42:20;20.10;9.20
24217;DHT22;12356;49.386;8.688;2023-07-13T03:44:51;20.00;9.40
24217;DHT22;12356;49.386;8.688;2023-07-13T03:47:22;20.00;7.20
24217;DHT22;12356;49.386;8.688;2023-07-13T03:49:53;20.00;8.10
24217;DHT22;12356;49.386;8.688;2023-07-13T03:52:23;20.00;8.40
24217;DHT22;12356;49.386;8.688;2023-07-13T03:54:54;20.00;8.00
24217;DHT22;12356;49.386;8.688;2023-07-13T03:57:25;20.00;7.60
24217;DHT22;12356;49.386;8.688;2023-07-13T03:59:56;20.00;7.80
24217;DHT22;12356;49.386;8.688;2023-07-13T04:02:26;20.00;8.00
24217;DHT22;12356;49.386;8.688;2023-07-13T04:04:57;20.10;7.40
24217;DHT22;12356;49.386;8.688;2023-07-13T04:07:27;20.00;7.50
24217;DHT22;12356;49.386;8.688;2023-07-13T04:09:58;20.10;7.30
24217;DHT22;12356;49.386;8.688;2023-07-13T04:12:28;20.10;6.70
24217;DHT22;12356;49.386;8.688;2023-07-13T04:14:59;20.10;6.60
24217;DHT22;12356;49.386;8.688;2023-07-13T04:17:29;20.10;6.30
24217;DHT22;12356;49.386;8.688;2023-07-13T04:20:00;20.10;6.40
24217;DHT22;12356;49.386;8.688;2023-07-13T04:22:30;20.10;6.60
24217;DHT22;12356;49.386;8.688;2023-07-13T04:25:01;20.20;6.90
24217;DHT22;12356;49.386;8.688;2023-07-13T04:27:31;20.20;6.50
24217;DHT22;12356;49.386;8.688;2023-07-13T04:30:02;20.20;6.30
24217;DHT22;12356;49.386;8.688;2023-07-13T04:32:33;20.20;6.00
24217;DHT22;12356;49.386;8.688;2023-07-13T04:35:04;20.20;6.80
24217;DHT22;12356;49.386;8.688;2023-07-13T04:37:35;20.10;7.40
24217;DHT22;12356;49.386;8.688;2023-07-13T04:40:06;20.10;7.30
24217;DHT22;12356;49.386;8.688;2023-07-13T04:42:37;20.10;7.60
24217;DHT22;12356;49.386;8.688;2023-07-13T04:45:08;20.10;7.70
24217;DHT22;12356;49.386;8.688;2023-07-13T04:47:38;20.00;8.10
24217;DHT22;12356;49.386;8.688;2023-07-13T04:50:09;20.00;8.20
24217;DHT22;12356;49.386;8.688;2023-07-13T04:52:41;20.00;8.80
24217;DHT22;12356;49.386;8.688;2023-07-13T04:55:12;20.00;8.90
24217;DHT22;12356;49.386;8.688;2023-07-13T04:57:43;20.00;8.90
24217;DHT22;12356;49.386;8.688;2023-07-13T05:00:14;19.90;7.80
24217;DHT22;12356;49.386;8.688;2023-07-13T05:02:45;19.90;8.00
24217;DHT22;12356;49.386;8.688;2023-07-13T05:05:16;20.00;7.80
24217;DHT22;12356;49.386;8.688;2023-07-13T05:07:47;20.00;8.70
24217;DHT22;12356;49.386;8.688;2023-07-13T05:10:17;20.00;9.30
24217;DHT22;12356;49.386;8.688;2023-07-13T05:12:48;20.00;9.80
24217;DHT22;12356;49.386;8.688;2023-07-13T05:15:21;20.00;8.70
24217;DHT22;12356;49.386;8.688;2023-07-13T05:17:52;20.10;8.10
24217;DHT22;12356;49.386;8.688;2023-07-13T05:20:23;20.00;9.00
24217;DHT22;12356;49.386;8.688;2023-07-13T05:22:53;20.00;9.20
24217;DHT22;12356;49.386;8.688;2023-07-13T05:25:24;20.00;9.00
24217;DHT22;12356;49.386;8.688;2023-07-13T05:27:54;20.10;9.00
24217;DHT22;12356;49.386;8.688;2023-07-13T05:30:25;20.00;9.80
24217;DHT22;12356;49.386;8.688;2023-07-13T05:32:56;20.00;9.90
24217;DHT22;12356;49.386;8.688;2023-07-13T05:35:26;20.00;10.30
24217;DHT22;12356;49.386;8.688;2023-07-13T05:37:57;19.90;9.70
24217;DHT22;12356;49.386;8.688;2023-07-13T05:40:27;19.90;9.30
24217;DHT22;12356;49.386;8.688;2023-07-13T05:42:58;20.00;10.20
24217;DHT22;12356;49.386;8.688;2023-07-13T05:45:29;20.00;11.00
24217;DHT22;12356;49.386;8.688;2023-07-13T05:47:59;20.10;11.20
24217;DHT22;12356;49.386;8.688;2023-07-13T05:50:30;20.10;10.40
24217;DHT22;12356;49.386;8.688;2023-07-13T05:53:01;20.20;10.20
24217;DHT22;12356;49.386;8.688;2023-07-13T05:55:31;20.20;8.00
24217;DHT22;12356;49.386;8.688;2023-07-13T05:58:02;20.20;7.80
24217;DHT22;12356;49.386;8.688;2023-07-13T06:00:33;20.30;7.40
24217;DHT22;12356;49.386;8.688;2023-07-13T06:03:04;20.40;8.30
24217;DHT22;12356;49.386;8.688;2023-07-13T06:05:35;20.50;6.80
24217;DHT22;12356;49.386;8.688;2023-07-13T06:08:07;20.60;5.00
24217;DHT22;12356;49.386;8.688;2023-07-13T06:10:38;20.60;4.30
24217;DHT22;12356;49.386;8.688;2023-07-13T06:13:08;20.70;6.30
24217;DHT22;12356;49.386;8.688;2023-07-13T06:15:39;20.70;6.80
24217;DHT22;12356;49.386;8.688;2023-07-13T06:18:09;20.80;6.20
24217;DHT22;12356;49.386;8.688;2023-07-13T06:20:40;20.80;4.70
24217;DHT22;12356;49.386;8.688;2023-07-13T06:23:10;20.90;3.30
24217;DHT22;12356;49.386;8.688;2023-07-13T06:25:41;20.90;2.60
24217;DHT22;12356;49.386;8.688;2023-07-13T06:28:13;20.90;2.70
24217;DHT22;12356;49.386;8.688;2023-07-13T06:30:43;20.90;1.80
24217;DHT22;12356;49.386;8.688;2023-07-13T06:33:14;21.00;2.60
24217;DHT22;12356;49.386;8.688;2023-07-13T06:35:44;21.00;4.10
24217;DHT22;12356;49.386;8.688;2023-07-13T06:38:15;21.00;3.90
24217;DHT22;12356;49.386;8.688;2023-07-13T06:40:45;21.10;4.00
24217;DHT22;12356;49.386;8.688;2023-07-13T06:43:16;21.10;4.30
24217;DHT22;12356;49.386;8.688;2023-07-13T06:45:48;21.20;4.50
24217;DHT22;12356;49.386;8.688;2023-07-13T06:48:20;21.20;4.40
24217;DHT22;12356;49.386;8.688;2023-07-13T06:50:51;21.20;3.40
24217;DHT22;12356;49.386;8.688;2023-07-13T06:53:23;21.20;4.20
24217;DHT22;12356;49.386;8.688;2023-07-13T06:55:54;21.30;4.60
24217;DHT22;12356;49.386;8.688;2023-07-13T06:58:24;21.30;2.80
24217;DHT22;12356;49.386;8.688;2023-07-13T07:00:55;21.30;2.80
24217;DHT22;12356;49.386;8.688;2023-07-13T07:03:25;21.30;1.00
24217;DHT22;12356;49.386;8.688;2023-07-13T07:06:18;21.30;1.40
24217;DHT22;12356;49.386;8.688;2023-07-13T07:08:49;21.40;1.00
24217;DHT22;12356;49.386;8.688;2023-07-13T07:11:23;21.40;1.00
24217;DHT22;12356;49.386;8.688;2023-07-13T07:13:54;21.40;1.00
24217;DHT22;12356;49.386;8.688;2023-07-13T07:16:25;21.40;1.00
24217;DHT22;12356;49.386;8.688;2023-07-13T07:18:56;21.50;1.00
24217;DHT22;12356;49.386;8.688;2023-07-13T07:21:26;21.50;1.00
24217;DHT22;12356;49.386;8.688;2023-07-13T07:23:57;21.60;1.00
24217;DHT22;12356;49.386;8.688;2023-07-13T07:26:30;21.70;1.00
24217;DHT22;12356;49.386;8.688;2023-07-13T07:29:01;21.70;1.00
24217;DHT22;12356;49.386;8.688;2023-07-13T07:31:31;21.70;1.00
24217;DHT22;12356;49.386;8.688;2023-07-13T07:34:02;21.80;1.00
24217;DHT22;12356;49.386;8.688;2023-07-13T07:36:33;21.80;1.00
24217;DHT22;12356;49.386;8.688;2023-07-13T07:39:04;21.90;1.00
24217;DHT22;12356;49.386;8.688;2023-07-13T07:41:35;22.00;1.00
24217;DHT22;12356;49.386;8.688;2023-07-13T07:44:05;22.10;1.00
24217;DHT22;12356;49.386;8.688;2023-07-13T07:46:39;22.20;1.00
24217;DHT22;12356;49.386;8.688;2023-07-13T07:49:11;22.30;1.00
24217;DHT22;12356;49.386;8.688;2023-07-13T07:51:41;22.30;1.00
24217;DHT22;12356;49.386;8.688;2023-07-13T07:54:12;22.40;1.00
24217;DHT22;12356;49.386;8.688;2023-07-13T07:56:43;22.50;1.00
24217;DHT22;12356;49.386;8.688;2023-07-13T07:59:14;22.50;1.00
24217;DHT22;12356;49.386;8.688;2023-07-13T08:01:44;22.50;1.00
24217;DHT22;12356;49.386;8.688;2023-07-13T08:04:16;22.50;1.00
24217;DHT22;12356;49.386;8.688;2023-07-13T08:06:47;22.60;1.00
24217;DHT22;12356;49.386;8.688;2023-07-13T08:09:17;22.60;1.00
24217;DHT22;12356;49.386;8.688;2023-07-13T08:11:48;22.60;1.00
24217;DHT22;12356;49.386;8.688;2023-07-13T08:14:18;22.70;1.00
24217;DHT22;12356;49.386;8.688;2023-07-13T08:16:49;22.70;1.00
24217;DHT22;12356;49.386;8.688;2023-07-13T08:19:20;22.70;1.00
24217;DHT22;12356;49.386;8.688;2023-07-13T08:21:50;22.70;1.00
24217;DHT22;12356;49.386;8.688;2023-07-13T08:24:23;22.80;1.00
24217;DHT22;12356;49.386;8.688;2023-07-13T08:26:54;22.80;1.00
24217;DHT22;12356;49.386;8.688;2023-07-13T08:29:24;22.90;1.00
24217;DHT22;12356;49.386;8.688;2023-07-13T08:31:55;22.90;1.00
24217;DHT22;12356;49.386;8.688;2023-07-13T08:34:25;22.90;1.00
24217;DHT22;12356;49.386;8.688;2023-07-13T08:36:56;22.90;1.00
24217;DHT22;12356;49.386;8.688;2023-07-13T08:39:26;22.90;1.00
24217;DHT22;12356;49.386;8.688;2023-07-13T08:42:07;22.90;1.00
24217;DHT22;12356;49.386;8.688;2023-07-13T08:47:49;23.00;1.00
24217;DHT22;12356;49.386;8.688;2023-07-13T08:50:31;23.00;1.00
24217;DHT22;12356;49.386;8.688;2023-07-13T08:53:03;23.00;1.00
24217;DHT22;12356;49.386;8.688;2023-07-13T08:55:36;22.90;1.00
24217;DHT22;12356;49.386;8.688;2023-07-13T08:58:15;22.90;1.00
24217;DHT22;12356;49.386;8.688;2023-07-13T09:04:03;23.00;1.00
24217;DHT22;12356;49.386;8.688;2023-07-13T09:14:55;23.20;1.00
24217;DHT22;12356;49.386;8.688;2023-07-13T09:17:41;23.20;1.00
24217;DHT22;12356;49.386;8.688;2023-07-13T09:20:27;23.20;1.00
24217;DHT22;12356;49.386;8.688;2023-07-13T09:23:01;23.20;1.00
24217;DHT22;12356;49.386;8.688;2023-07-13T09:25:36;23.20;1.00
24217;DHT22;12356;49.386;8.688;2023-07-13T09:28:27;23.30;1.00
24217;DHT22;12356;49.386;8.688;2023-07-13T09:31:07;23.30;1.00
24217;DHT22;12356;49.386;8.688;2023-07-13T09:33:40;23.30;1.00
24217;DHT22;12356;49.386;8.688;2023-07-13T09:36:23;23.30;1.00
24217;DHT22;12356;49.386;8.688;2023-07-13T09:39:22;23.30;1.00
24217;DHT22;12356;49.386;8.688;2023-07-13T09:42:16;23.40;1.00
24217;DHT22;12356;49.386;8.688;2023-07-13T09:44:58;23.50;1.00
24217;DHT22;12356;49.386;8.688;2023-07-13T09:47:30;23.60;1.00
24217;DHT22;12356;49.386;8.688;2023-07-13T09:50:03;23.60;1.00
24217;DHT22;12356;49.386;8.688;2023-07-13T09:52:49;23.60;1.00
24217;DHT22;12356;49.386;8.688;2023-07-13T09:55:32;23.60;1.00
24217;DHT22;12356;49.386;8.688;2023-07-13T09:58:17;23.70;1.00
24217;DHT22;12356;49.386;8.688;2023-07-13T10:01:03;23.70;1.00
24217;DHT22;12356;49.386;8.688;2023-07-13T10:03:35;23.70;1.00
24217;DHT22;12356;49.386;8.688;2023-07-13T10:06:18;23.70;1.00
24217;DHT22;12356;49.386;8.688;2023-07-13T10:08:50;23.70;1.00
24217;DHT22;12356;49.386;8.688;2023-07-13T10:11:26;23.60;1.00
24217;DHT22;12356;49.386;8.688;2023-07-13T10:14:09;23.60;1.00
24217;DHT22;12356;49.386;8.688;2023-07-13T10:16:43;23.70;1.00
24217;DHT22;12356;49.386;8.688;2023-07-13T10:19:26;23.70;1.00
24217;DHT22;12356;49.386;8.688;2023-07-13T10:22:00;23.80;1.00
24217;DHT22;12356;49.386;8.688;2023-07-13T10:24:33;23.80;1.00
24217;DHT22;12356;49.386;8.688;2023-07-13T10:27:24;23.70;1.00
24217;DHT22;12356;49.386;8.688;2023-07-13T10:30:04;23.70;1.00
24217;DHT22;12356;49.386;8.688;2023-07-13T10:32:39;23.70;1.00
24217;DHT22;12356;49.386;8.688;2023-07-13T10:35:13;23.70;1.00
24217;DHT22;12356;49.386;8.688;2023-07-13T10:38:14;23.70;1.00
24217;DHT22;12356;49.386;8.688;2023-07-13T10:41:07;23.70;1.00
24217;DHT22;12356;49.386;8.688;2023-07-13T10:43:47;23.80;1.00
24217;DHT22;12356;49.386;8.688;2023-07-13T10:46:23;23.80;1.00
24217;DHT22;12356;49.386;8.688;2023-07-13T10:49:01;23.90;1.00
24217;DHT22;12356;49.386;8.688;2023-07-13T10:51:33;24.00;1.00
24217;DHT22;12356;49.386;8.688;2023-07-13T10:54:20;24.00;1.00
24217;DHT22;12356;49.386;8.688;2023-07-13T10:57:16;24.00;1.00
24217;DHT22;12356;49.386;8.688;2023-07-13T11:00:08;23.90;1.00
24217;DHT22;12356;49.386;8.688;2023-07-13T11:02:39;23.90;1.00
24217;DHT22;12356;49.386;8.688;2023-07-13T11:05:26;23.90;1.00
24217;DHT22;12356;49.386;8.688;2023-07-13T11:08:18;23.90;1.00
24217;DHT22;12356;49.386;8.688;2023-07-13T11:10:55;23.80;1.00
24217;DHT22;12356;49.386;8.688;2023-07-13T11:19:24;24.00;1.00
24217;DHT22;12356;49.386;8.688;2023-07-13T11:36:16;24.10;1.00
24217;DHT22;12356;49.386;8.688;2023-07-13T11:41:45;24.20;1.00
24217;DHT22;12356;49.386;8.688;2023-07-13T11:44:19;24.30;1.00
24217;DHT22;12356;49.386;8.688;2023-07-13T11:46:52;24.30;1.00
24217;DHT22;12356;49.386;8.688;2023-07-13T11:49:25;24.40;1.00
24217;DHT22;12356;49.386;8.688;2023-07-13T11:51:57;24.50;1.00
24217;DHT22;12356;49.386;8.688;2023-07-13T11:54:34;24.60;1.00
24217;DHT22;12356;49.386;8.688;2023-07-13T11:57:37;24.60;1.00
24217;DHT22;12356;49.386;8.688;2023-07-13T12:00:16;24.60;1.00
24217;DHT22;12356;49.386;8.688;2023-07-13T12:02:55;24.70;1.00
24217;DHT22;12356;49.386;8.688;2023-07-13T12:05:26;24.70;1.00
24217;DHT22;12356;49.386;8.688;2023-07-13T12:07:57;24.80;1.00
24217;DHT22;12356;49.386;8.688;2023-07-13T12:10:30;24.90;1.00
24217;DHT22;12356;49.386;8.688;2023-07-13T12:13:03;24.90;1.00
24217;DHT22;12356;49.386;8.688;2023-07-13T12:15:36;25.00;1.00
24217;DHT22;12356;49.386;8.688;2023-07-13T12:18:32;24.90;1.00
24217;DHT22;12356;49.386;8.688;2023-07-13T12:21:04;24.80;1.00
24217;DHT22;12356;49.386;8.688;2023-07-13T12:23:36;24.90;1.00
24217;DHT22;12356;49.386;8.688;2023-07-13T12:26:07;24.90;1.00
24217;DHT22;12356;49.386;8.688;2023-07-13T12:28:51;25.00;1.00
24217;DHT22;12356;49.386;8.688;2023-07-13T12:31:39;25.10;1.00
24217;DHT22;12356;49.386;8.688;2023-07-13T12:34:13;25.10;1.00
24217;DHT22;12356;49.386;8.688;2023-07-13T12:36:55;25.20;1.00
24217;DHT22;12356;49.386;8.688;2023-07-13T12:39:48;25.30;1.00
24217;DHT22;12356;49.386;8.688;2023-07-13T12:42:20;25.30;1.00
24217;DHT22;12356;49.386;8.688;2023-07-13T12:45:15;25.30;1.00
24217;DHT22;12356;49.386;8.688;2023-07-13T12:48:03;25.30;1.00
24217;DHT22;12356;49.386;8.688;2023-07-13T12:50:41;25.20;1.00
24217;DHT22;12356;49.386;8.688;2023-07-13T12:53:15;25.20;1.00
24217;DHT22;12356;49.386;8.688;2023-07-13T12:55:49;25.10;1.00
24217;DHT22;12356;49.386;8.688;2023-07-13T12:58:35;25.00;1.00
24217;DHT22;12356;49.386;8.688;2023-07-13T13:01:07;25.00;1.00
24217;DHT22;12356;49.386;8.688;2023-07-13T13:03:45;25.00;1.00
24217;DHT22;12356;49.386;8.688;2023-07-13T13:08:50;25.00;1.00
24217;DHT22;12356;49.386;8.688;2023-07-13T13:11:22;25.00;1.00
24217;DHT22;12356;49.386;8.688;2023-07-13T13:13:53;25.00;1.00
24217;DHT22;12356;49.386;8.688;2023-07-13T13:16:33;25.00;1.00
24217;DHT22;12356;49.386;8.688;2023-07-13T13:19:13;24.90;1.00
24217;DHT22;12356;49.386;8.688;2023-07-13T13:21:45;24.90;1.00
24217;DHT22;12356;49.386;8.688;2023-07-13T13:24:21;24.90;1.00
24217;DHT22;12356;49.386;8.688;2023-07-13T13:26:53;24.90;1.00
24217;DHT22;12356;49.386;8.688;2023-07-13T13:29:25;24.90;1.00
24217;DHT22;12356;49.386;8.688;2023-07-13T13:31:55;24.80;1.00
24217;DHT22;12356;49.386;8.688;2023-07-13T13:34:26;24.80;1.00
24217;DHT22;12356;49.386;8.688;2023-07-13T13:36:57;24.80;1.00
24217;DHT22;12356;49.386;8.688;2023-07-13T13:39:34;24.80;1.00
24217;DHT22;12356;49.386;8.688;2023-07-13T13:42:05;24.90;1.00
24217;DHT22;12356;49.386;8.688;2023-07-13T13:44:35;24.80;1.00
24217;DHT22;12356;49.386;8.688;2023-07-13T13:47:30;24.80;1.00
24217;DHT22;12356;49.386;8.688;2023-07-13T13:50:20;24.80;1.00
24217;DHT22;12356;49.386;8.688;2023-07-13T13:52:55;24.80;1.00
24217;DHT22;12356;49.386;8.688;2023-07-13T13:55:25;24.90;1.00
24217;DHT22;12356;49.386;8.688;2023-07-13T13:57:56;24.80;1.00
24217;DHT22;12356;49.386;8.688;2023-07-13T14:00:26;24.90;1.00
24217;DHT22;12356;49.386;8.688;2023-07-13T14:02:57;24.90;1.00
24217;DHT22;12356;49.386;8.688;2023-07-13T14:05:27;24.90;1.00
24217;DHT22;12356;49.386;8.688;2023-07-13T14:08:00;25.00;1.00
24217;DHT22;12356;49.386;8.688;2023-07-13T14:10:31;25.00;1.00
24217;DHT22;12356;49.386;8.688;2023-07-13T14:13:01;25.00;1.00
24217;DHT22;12356;49.386;8.688;2023-07-13T14:15:32;25.00;1.00
24217;DHT22;12356;49.386;8.688;2023-07-13T14:18:02;25.00;1.00
24217;DHT22;12356;49.386;8.688;2023-07-13T14:20:33;25.00;1.00
24217;DHT22;12356;49.386;8.688;2023-07-13T14:23:04;25.00;1.00
24217;DHT22;12356;49.386;8.688;2023-07-13T14:25:34;25.00;1.00
24217;DHT22;12356;49.386;8.688;2023-07-13T14:28:32;25.00;1.00
24217;DHT22;12356;49.386;8.688;2023-07-13T14:31:02;25.00;1.00
24217;DHT22;12356;49.386;8.688;2023-07-13T14:33:33;25.00;1.00
24217;DHT22;12356;49.386;8.688;2023-07-13T14:36:20;25.00;1.00
24217;DHT22;12356;49.386;8.688;2023-07-13T14:38:52;25.00;1.00
24217;DHT22;12356;49.386;8.688;2023-07-13T14:41:23;25.00;1.00
24217;DHT22;12356;49.386;8.688;2023-07-13T14:43:54;25.00;1.00
24217;DHT22;12356;49.386;8.688;2023-07-13T14:46:28;25.00;1.00
24217;DHT22;12356;49.386;8.688;2023-07-13T14:52:01;24.80;1.00
24217;DHT22;12356;49.386;8.688;2023-07-13T14:54:33;24.80;1.00
24217;DHT22;12356;49.386;8.688;2023-07-13T14:57:04;24.90;1.00
24217;DHT22;12356;49.386;8.688;2023-07-13T14:59:34;24.80;1.00
24217;DHT22;12356;49.386;8.688;2023-07-13T15:02:19;24.80;1.00
24217;DHT22;12356;49.386;8.688;2023-07-13T15:04:54;24.80;1.00
24217;DHT22;12356;49.386;8.688;2023-07-13T15:07:25;24.80;1.00
24217;DHT22;12356;49.386;8.688;2023-07-13T15:09:56;24.90;1.00
24217;DHT22;12356;49.386;8.688;2023-07-13T15:12:26;24.90;1.00
24217;DHT22;12356;49.386;8.688;2023-07-13T15:14:57;24.90;1.00
24217;DHT22;12356;49.386;8.688;2023-07-13T15:17:33;24.90;1.00
24217;DHT22;12356;49.386;8.688;2023-07-13T15:20:28;24.90;1.00
24217;DHT22;12356;49.386;8.688;2023-07-13T15:22:59;24.90;1.00
24217;DHT22;12356;49.386;8.688;2023-07-13T15:25:31;24.90;1.00
24217;DHT22;12356;49.386;8.688;2023-07-13T15:28:03;25.00;1.00
24217;DHT22;12356;49.386;8.688;2023-07-13T15:30:40;25.00;1.00
24217;DHT22;12356;49.386;8.688;2023-07-13T15:35:48;25.30;1.00
24217;DHT22;12356;49.386;8.688;2023-07-13T15:38:22;25.30;1.00
24217;DHT22;12356;49.386;8.688;2023-07-13T15:40:53;25.30;1.00
24217;DHT22;12356;49.386;8.688;2023-07-13T15:43:26;25.30;1.00
24217;DHT22;12356;49.386;8.688;2023-07-13T15:45:57;25.40;1.00
24217;DHT22;12356;49.386;8.688;2023-07-13T15:48:27;25.40;1.00
24217;DHT22;12356;49.386;8.688;2023-07-13T15:51:01;25.40;1.00
24217;DHT22;12356;49.386;8.688;2023-07-13T15:53:33;25.40;1.00
24217;DHT22;12356;49.386;8.688;2023-07-13T15:56:21;25.40;1.00
24217;DHT22;12356;49.386;8.688;2023-07-13T15:58:52;25.40;1.00
24217;DHT22;12356;49.386;8.688;2023-07-13T16:01:24;25.40;1.00
24217;DHT22;12356;49.386;8.688;2023-07-13T16:03:54;25.30;1.00
24217;DHT22;12356;49.386;8.688;2023-07-13T16:06:33;25.30;1.00
24217;DHT22;12356;49.386;8.688;2023-07-13T16:09:06;25.40;1.00
24217;DHT22;12356;49.386;8.688;2023-07-13T16:11:38;25.40;1.00
24217;DHT22;12356;49.386;8.688;2023-07-13T16:14:13;25.40;1.00
24217;DHT22;12356;49.386;8.688;2023-07-13T16:16:44;25.50;1.00
24217;DHT22;12356;49.386;8.688;2023-07-13T16:19:16;25.50;1.00
24217;DHT22;12356;49.386;8.688;2023-07-13T16:21:50;25.50;1.00
24217;DHT22;12356;49.386;8.688;2023-07-13T16:24:23;25.40;1.00
24217;DHT22;12356;49.386;8.688;2023-07-13T16:26:55;25.40;1.00
24217;DHT22;12356;49.386;8.688;2023-07-13T16:29:29;25.40;1.00
24217;DHT22;12356;49.386;8.688;2023-07-13T16:32:13;25.50;1.00
24217;DHT22;12356;49.386;8.688;2023-07-13T16:34:44;25.50;1.00
24217;DHT22;12356;49.386;8.688;2023-07-13T16:37:27;25.40;1.00
24217;DHT22;12356;49.386;8.688;2023-07-13T16:39:59;25.40;1.00
24217;DHT22;12356;49.386;8.688;2023-07-13T16:42:30;25.40;1.00
24217;DHT22;12356;49.386;8.688;2023-07-13T16:45:01;25.40;1.00
24217;DHT22;12356;49.386;8.688;2023-07-13T16:47:33;25.30;1.00
24217;DHT22;12356;49.386;8.688;2023-07-13T16:50:14;25.20;1.00
24217;DHT22;12356;49.386;8.688;2023-07-13T16:52:45;25.20;1.00
24217;DHT22;12356;49.386;8.688;2023-07-13T16:55:18;25.20;1.00
24217;DHT22;12356;49.386;8.688;2023-07-13T16:57:53;25.20;1.00
24217;DHT22;12356;49.386;8.688;2023-07-13T17:00:25;25.20;1.00
24217;DHT22;12356;49.386;8.688;2023-07-13T17:03:04;25.30;1.00
24217;DHT22;12356;49.386;8.688;2023-07-13T17:05:40;25.20;1.00
24217;DHT22;12356;49.386;8.688;2023-07-13T17:08:19;25.20;1.00
24217;DHT22;12356;49.386;8.688;2023-07-13T17:10:53;25.20;1.00
24217;DHT22;12356;49.386;8.688;2023-07-13T17:13:33;25.20;1.00